DCA weather

Ronald Reagan Washington National Airport
Washington, District of Columbia, United States

Public forecast

Using degrees Fahrenheit for public forecast. Weather courtesy of forecast.io.

METAR (pilot weather report)

Retrieved 2018/08/20 03:25 UTC (12 minutes ago):

KDCA 200325Z 05008KT 10SM BKN014 OVC250 23/21 A3004 RMK AO2 T02330206

TAF (pilot weather forecast)

Forecast is more than 12 hours old.

Retrieved 2018/08/19 00:46 UTC (1 day ago):

TAF KDCA 192344Z 2000/2106 06007KT P6SM BKN030 BKN050 FM200300 06007KT P6SM BKN020 BKN050 FM200800 03006KT P6SM SCT010 BKN020 FM201600 07006KT P6SM SCT015 BKN035 FM210000 11007KT P6SM BKN025